createdAt,value
2022-11-29T00:00:10.882Z,92.52
2022-11-29T00:02:41.588Z,93.00
2022-11-29T00:05:12.736Z,92.66
2022-11-29T00:07:43.650Z,93.06
2022-11-29T00:10:16.251Z,92.77
2022-11-29T00:12:49.858Z,94.26
2022-11-29T00:15:21.234Z,94.43
2022-11-29T00:17:52.440Z,95.21
2022-11-29T00:20:23.541Z,95.68
2022-11-29T00:22:54.318Z,95.65
2022-11-29T00:25:26.990Z,95.48
2022-11-29T00:27:57.847Z,95.21
2022-11-29T00:30:29.261Z,95.67
2022-11-29T00:33:00.508Z,95.48
2022-11-29T00:35:31.446Z,95.84
2022-11-29T00:38:02.707Z,95.41
2022-11-29T00:40:37.987Z,95.51
2022-11-29T00:43:08.657Z,95.86
2022-11-29T00:45:39.481Z,95.62
2022-11-29T00:48:10.469Z,96.27
2022-11-29T00:50:41.222Z,95.67
2022-11-29T00:53:11.917Z,95.70
2022-11-29T00:55:44.288Z,95.02
2022-11-29T00:58:15.079Z,95.44
2022-11-29T01:00:45.948Z,95.97
2022-11-29T01:03:17.375Z,96.07
2022-11-29T01:05:48.527Z,95.94
2022-11-29T01:08:19.681Z,96.07
2022-11-29T01:10:52.053Z,96.85
2022-11-29T01:13:22.794Z,95.80
2022-11-29T01:15:59.411Z,95.85
2022-11-29T01:18:31.321Z,95.45
2022-11-29T01:21:04.949Z,95.50
2022-11-29T01:23:37.432Z,95.74
2022-11-29T01:26:12.411Z,95.84
2022-11-29T01:28:44.372Z,95.81
2022-11-29T01:31:18.058Z,96.36
2022-11-29T01:33:49.308Z,96.22
2022-11-29T01:36:20.080Z,96.35
2022-11-29T01:38:50.746Z,95.78
2022-11-29T01:41:24.743Z,95.86
2022-11-29T01:44:01.829Z,97.16
2022-11-29T01:46:35.434Z,97.30
2022-11-29T01:49:10.099Z,97.73
2022-11-29T01:51:43.115Z,97.82
2022-11-29T01:54:15.851Z,97.55
2022-11-29T01:56:50.613Z,97.33
2022-11-29T01:59:24.989Z,97.36
2022-11-29T02:01:56.870Z,97.57
2022-11-29T02:04:27.613Z,97.75
2022-11-29T02:06:58.341Z,98.07
2022-11-29T02:09:29.161Z,98.01
2022-11-29T02:12:16.358Z,97.41
2022-11-29T02:14:59.984Z,97.31
2022-11-29T02:17:38.808Z,97.53
2022-11-29T02:20:38.535Z,97.54
2022-11-29T02:26:24.403Z,97.15
2022-11-29T02:29:45.893Z,97.71
2022-11-29T02:33:00.964Z,97.83
2022-11-29T02:35:51.139Z,97.78
2022-11-29T02:38:39.651Z,98.20
2022-11-29T02:41:30.761Z,98.50
2022-11-29T02:44:31.511Z,98.20
2022-11-29T02:47:16.280Z,98.88
2022-11-29T02:50:04.975Z,98.88
2022-11-29T02:52:48.089Z,99.41
2022-11-29T02:55:28.106Z,99.77
2022-11-29T02:58:01.662Z,99.75
2022-11-29T03:00:32.974Z,100.00
2022-11-29T03:03:13.048Z,100.00
2022-11-29T03:05:45.603Z,100.00
2022-11-29T03:08:26.076Z,100.00
2022-11-29T03:11:05.487Z,100.00
2022-11-29T03:13:53.939Z,100.00
2022-11-29T03:16:43.047Z,100.00
2022-11-29T03:19:32.887Z,100.00
2022-11-29T03:22:13.088Z,100.00
2022-11-29T03:24:53.711Z,100.00
2022-11-29T03:27:33.428Z,100.00
2022-11-29T03:30:08.320Z,100.00
2022-11-29T03:32:48.532Z,100.00
2022-11-29T03:35:28.175Z,100.00
2022-11-29T03:38:05.822Z,100.00
2022-11-29T03:40:48.178Z,100.00
2022-11-29T03:43:23.956Z,100.00
2022-11-29T03:46:01.246Z,100.00
2022-11-29T03:48:36.455Z,100.00
2022-11-29T03:51:11.101Z,100.00
2022-11-29T03:53:49.163Z,100.00
2022-11-29T03:56:32.670Z,100.00
2022-11-29T03:59:20.347Z,100.00
2022-11-29T04:02:07.050Z,100.00
2022-11-29T04:05:09.052Z,100.00
2022-11-29T04:08:03.285Z,100.00
2022-11-29T04:11:05.550Z,100.00
2022-11-29T04:13:59.647Z,100.00
2022-11-29T04:16:59.176Z,100.00
2022-11-29T04:19:51.464Z,100.00
2022-11-29T04:22:45.368Z,100.00
2022-11-29T04:26:05.566Z,100.00
2022-11-29T04:29:10.585Z,100.00
2022-11-29T04:31:55.798Z,100.00
2022-11-29T04:35:07.297Z,100.00
2022-11-29T04:38:02.173Z,100.00
2022-11-29T04:40:59.315Z,100.00
2022-11-29T04:43:55.256Z,100.00
2022-11-29T04:47:00.567Z,100.00
2022-11-29T04:50:08.918Z,100.00
2022-11-29T04:53:07.007Z,100.00
2022-11-29T04:55:47.695Z,100.00
2022-11-29T04:58:28.163Z,100.00
2022-11-29T05:01:04.993Z,100.00
2022-11-29T05:03:46.792Z,100.00
2022-11-29T05:06:28.471Z,100.00
2022-11-29T05:09:05.973Z,100.00
2022-11-29T05:11:53.143Z,100.00
2022-11-29T05:14:35.618Z,100.00
2022-11-29T05:17:26.933Z,100.00
2022-11-29T05:20:10.030Z,100.00
2022-11-29T05:22:50.981Z,100.00
2022-11-29T05:25:38.485Z,100.00
2022-11-29T05:28:18.421Z,100.00
2022-11-29T05:31:00.142Z,100.00
2022-11-29T05:33:46.324Z,100.00
2022-11-29T05:36:30.460Z,100.00
2022-11-29T05:39:18.875Z,100.00
2022-11-29T05:42:10.633Z,100.00
2022-11-29T05:44:48.643Z,100.00
2022-11-29T05:47:31.056Z,100.00
2022-11-29T05:50:13.442Z,100.00
2022-11-29T05:52:56.483Z,100.00
2022-11-29T05:55:39.103Z,100.00
2022-11-29T05:58:34.920Z,100.00
2022-11-29T06:01:20.549Z,100.00
2022-11-29T06:04:15.143Z,100.00
2022-11-29T06:06:53.115Z,100.00
2022-11-29T06:09:50.755Z,100.00
2022-11-29T06:12:28.117Z,100.00
2022-11-29T06:15:29.742Z,100.00
2022-11-29T06:18:32.958Z,100.00
2022-11-29T06:21:17.378Z,100.00
2022-11-29T06:28:15.005Z,100.00
2022-11-29T06:30:58.208Z,100.00
2022-11-29T06:33:35.766Z,100.00
2022-11-29T06:36:17.000Z,100.00
2022-11-29T06:38:48.544Z,100.00
2022-11-29T06:41:23.129Z,100.00
2022-11-29T06:43:56.196Z,100.00
2022-11-29T06:46:45.775Z,100.00
2022-11-29T06:49:22.033Z,100.00
2022-11-29T06:52:02.985Z,100.00
2022-11-29T06:54:48.349Z,100.00
2022-11-29T06:57:27.842Z,100.00
2022-11-29T07:00:12.526Z,100.00
2022-11-29T07:03:03.523Z,100.00
2022-11-29T07:05:38.824Z,100.00
2022-11-29T07:08:15.031Z,100.00
2022-11-29T07:10:51.045Z,100.00
2022-11-29T07:13:23.674Z,100.00
2022-11-29T07:16:06.921Z,100.00
2022-11-29T07:18:52.654Z,100.00
2022-11-29T07:21:29.706Z,100.00
2022-11-29T07:24:08.626Z,100.00
2022-11-29T07:26:49.192Z,100.00
2022-11-29T07:29:34.717Z,100.00
2022-11-29T07:32:20.171Z,100.00
2022-11-29T07:35:04.382Z,100.00
2022-11-29T07:37:42.840Z,100.00
2022-11-29T07:40:18.951Z,100.00
2022-11-29T07:43:04.922Z,100.00
2022-11-29T07:45:40.194Z,100.00
2022-11-29T07:48:15.313Z,96.92
2022-11-29T07:50:46.822Z,96.68
2022-11-29T07:53:22.513Z,93.21
2022-11-29T07:55:54.511Z,91.49
2022-11-29T07:58:25.882Z,91.23
2022-11-29T08:00:56.726Z,90.82
2022-11-29T08:03:29.248Z,89.67
2022-11-29T08:06:00.379Z,86.81
2022-11-29T08:08:33.675Z,86.15
2022-11-29T08:11:04.342Z,85.47
2022-11-29T08:13:35.364Z,84.09
2022-11-29T08:16:08.347Z,84.53
2022-11-29T08:18:47.396Z,83.36
2022-11-29T08:21:55.319Z,82.14
2022-11-29T08:24:33.621Z,81.75
2022-11-29T08:27:06.279Z,81.72
2022-11-29T08:29:41.547Z,81.20
2022-11-29T08:32:15.020Z,81.39
2022-11-29T08:34:47.834Z,78.90
2022-11-29T08:37:18.809Z,78.08
2022-11-29T08:39:49.623Z,78.08
2022-11-29T08:42:23.459Z,77.67
2022-11-29T08:44:54.608Z,76.74
2022-11-29T08:47:42.007Z,77.47
2022-11-29T08:50:17.439Z,78.63
2022-11-29T08:53:06.704Z,78.49
2022-11-29T08:55:40.744Z,78.50
2022-11-29T08:58:18.858Z,77.91
2022-11-29T09:00:50.710Z,77.67
2022-11-29T09:03:39.964Z,77.52
2022-11-29T09:06:16.073Z,77.65
2022-11-29T09:12:16.111Z,78.33
2022-11-29T09:14:58.300Z,78.91
2022-11-29T09:17:32.211Z,78.05
2022-11-29T09:20:06.634Z,77.36
2022-11-29T09:22:41.857Z,76.25
2022-11-29T09:25:15.381Z,77.17
2022-11-29T09:27:59.646Z,77.30
2022-11-29T09:30:47.701Z,77.82
2022-11-29T09:33:26.652Z,76.92
2022-11-29T09:36:09.165Z,76.08
2022-11-29T09:38:58.328Z,75.80
2022-11-29T09:42:07.678Z,76.12
2022-11-29T09:45:00.396Z,75.37
2022-11-29T09:47:50.937Z,75.86
2022-11-29T09:50:49.887Z,75.94
2022-11-29T09:53:36.648Z,75.62
2022-11-29T09:56:19.220Z,75.01
2022-11-29T09:58:55.530Z,74.75
2022-11-29T10:01:32.186Z,74.64
2022-11-29T10:04:08.457Z,75.13
2022-11-29T10:06:44.577Z,74.33
2022-11-29T10:09:20.450Z,74.48
2022-11-29T10:12:17.685Z,74.53
2022-11-29T10:14:57.808Z,75.03
2022-11-29T10:17:37.618Z,75.44
2022-11-29T10:20:14.546Z,76.00
2022-11-29T10:25:58.500Z,76.25
2022-11-29T10:28:32.922Z,76.58
2022-11-29T10:31:12.756Z,76.86
2022-11-29T10:33:44.010Z,77.11
2022-11-29T10:36:34.395Z,77.20
2022-11-29T10:39:14.456Z,77.46
2022-11-29T10:41:52.450Z,76.77
2022-11-29T10:44:32.151Z,76.45
2022-11-29T10:47:10.460Z,76.72
2022-11-29T10:50:08.147Z,77.15
2022-11-29T10:53:15.905Z,77.49
2022-11-29T10:55:52.647Z,77.93
2022-11-29T10:58:28.655Z,77.80
2022-11-29T11:01:03.020Z,77.62
2022-11-29T11:03:43.330Z,77.33
2022-11-29T11:06:17.825Z,77.26
2022-11-29T11:08:52.741Z,77.11
2022-11-29T11:11:44.834Z,76.99
2022-11-29T11:14:40.688Z,77.37
2022-11-29T11:17:27.295Z,77.35
2022-11-29T11:20:01.677Z,77.52
2022-11-29T11:22:33.765Z,77.93
2022-11-29T11:25:09.668Z,78.43
2022-11-29T11:27:42.833Z,78.33
2022-11-29T11:30:27.861Z,78.46
2022-11-29T11:33:22.486Z,77.18
2022-11-29T11:36:12.115Z,76.63
2022-11-29T11:38:45.408Z,74.97
2022-11-29T11:41:51.862Z,73.80
2022-11-29T11:44:50.451Z,74.60
2022-11-29T11:47:25.178Z,75.36
2022-11-29T11:53:07.170Z,74.63
2022-11-29T11:55:43.234Z,74.51
2022-11-29T11:58:25.973Z,74.29
2022-11-29T12:01:05.091Z,74.28
2022-11-29T12:03:57.616Z,74.63
2022-11-29T12:06:40.133Z,74.67
2022-11-29T12:09:22.686Z,75.69
2022-11-29T12:12:10.103Z,75.96
2022-11-29T12:15:00.724Z,75.26
2022-11-29T12:17:38.964Z,74.96
2022-11-29T12:20:25.367Z,74.69
2022-11-29T12:23:21.648Z,74.27
2022-11-29T12:25:56.249Z,74.37
2022-11-29T12:28:31.120Z,73.11
2022-11-29T12:31:15.084Z,71.18
2022-11-29T12:33:55.900Z,68.86
2022-11-29T12:36:39.813Z,69.74
2022-11-29T12:39:34.652Z,69.92
2022-11-29T12:42:14.693Z,69.92
2022-11-29T12:44:59.619Z,69.90
2022-11-29T12:47:48.836Z,69.33
2022-11-29T12:50:37.381Z,69.80
2022-11-29T12:53:27.684Z,70.60
2022-11-29T12:56:18.253Z,71.69
2022-11-29T12:59:02.950Z,72.09
2022-11-29T13:01:49.397Z,72.52
2022-11-29T13:04:32.527Z,71.73
2022-11-29T13:07:09.172Z,72.37
2022-11-29T13:10:37.054Z,72.74
2022-11-29T13:13:22.306Z,72.31
2022-11-29T13:16:04.546Z,71.87
2022-11-29T13:18:44.160Z,71.05
2022-11-29T13:21:18.353Z,70.90
2022-11-29T13:24:11.924Z,70.38
2022-11-29T13:26:44.684Z,71.46
2022-11-29T13:29:19.345Z,71.05
2022-11-29T13:31:54.172Z,70.64
2022-11-29T13:34:31.934Z,70.96
2022-11-29T13:37:10.843Z,71.43
2022-11-29T13:40:04.614Z,71.30
2022-11-29T13:42:46.143Z,70.42
2022-11-29T13:45:33.376Z,70.37
2022-11-29T13:48:38.484Z,70.40
2022-11-29T13:51:28.884Z,70.32
2022-11-29T13:54:01.546Z,70.34
2022-11-29T13:56:43.867Z,70.20
2022-11-29T13:59:35.589Z,69.03
2022-11-29T14:02:31.089Z,69.02
2022-11-29T14:05:03.791Z,69.27
2022-11-29T14:07:35.876Z,69.44
2022-11-29T14:10:12.338Z,69.36
2022-11-29T14:12:52.759Z,69.48
2022-11-29T14:15:29.072Z,68.39
2022-11-29T14:18:04.954Z,68.08
2022-11-29T14:21:05.411Z,69.05
2022-11-29T14:23:51.665Z,69.11
2022-11-29T14:26:29.266Z,69.09
2022-11-29T14:29:01.365Z,69.80
2022-11-29T14:31:56.319Z,69.34
2022-11-29T14:34:49.965Z,69.77
2022-11-29T14:37:43.684Z,68.35
2022-11-29T14:40:34.369Z,68.28
2022-11-29T14:43:06.946Z,68.68
2022-11-29T14:45:41.045Z,67.11
2022-11-29T14:48:28.575Z,67.26
2022-11-29T14:51:14.047Z,67.38
2022-11-29T14:53:47.312Z,67.44
2022-11-29T14:56:43.280Z,68.25
2022-11-29T14:59:43.479Z,68.04
2022-11-29T15:02:28.938Z,65.36
2022-11-29T15:05:07.359Z,66.34
2022-11-29T15:07:44.868Z,65.78
2022-11-29T15:10:22.986Z,64.99
2022-11-29T15:12:55.369Z,65.25
2022-11-29T15:15:41.031Z,66.10
2022-11-29T15:18:29.373Z,66.23
2022-11-29T15:21:26.233Z,65.98
2022-11-29T15:24:12.275Z,66.66
2022-11-29T15:26:57.178Z,66.45
2022-11-29T15:29:29.185Z,66.82
2022-11-29T15:32:09.499Z,66.92
2022-11-29T15:34:44.004Z,67.75
2022-11-29T15:37:25.388Z,68.06
2022-11-29T15:40:11.259Z,68.28
2022-11-29T15:42:47.502Z,68.65
2022-11-29T15:45:37.791Z,69.87
2022-11-29T15:48:20.238Z,69.58
2022-11-29T15:51:01.287Z,69.79
2022-11-29T15:53:37.307Z,70.32
2022-11-29T15:56:19.474Z,69.67
2022-11-29T15:58:55.071Z,69.70
2022-11-29T16:01:26.087Z,70.52
2022-11-29T16:04:00.030Z,71.43
2022-11-29T16:06:36.200Z,71.61
2022-11-29T16:09:12.235Z,71.91
2022-11-29T16:11:45.228Z,71.60
2022-11-29T16:14:24.740Z,71.79
2022-11-29T16:16:57.411Z,72.18
2022-11-29T16:19:37.781Z,73.09
2022-11-29T16:22:23.739Z,72.73
2022-11-29T16:25:06.036Z,73.29
2022-11-29T16:27:39.188Z,73.72
2022-11-29T16:30:22.776Z,74.02
2022-11-29T16:32:57.603Z,74.34
2022-11-29T16:35:30.649Z,74.08
2022-11-29T16:38:04.153Z,74.41
2022-11-29T16:40:44.303Z,74.42
2022-11-29T16:43:47.868Z,74.28
2022-11-29T16:46:49.840Z,74.06
2022-11-29T16:49:39.360Z,73.66
2022-11-29T16:52:30.046Z,73.70
2022-11-29T16:55:00.738Z,73.64
2022-11-29T16:57:32.718Z,73.16
2022-11-29T17:00:11.885Z,73.32
2022-11-29T17:02:45.754Z,73.77
2022-11-29T17:05:19.024Z,73.62
2022-11-29T17:07:50.746Z,72.94
2022-11-29T17:10:24.137Z,68.26
2022-11-29T17:12:57.499Z,67.74
2022-11-29T17:15:31.948Z,67.62
2022-11-29T17:18:04.912Z,68.38
2022-11-29T17:20:35.808Z,67.81
2022-11-29T17:23:06.385Z,67.14
2022-11-29T17:25:40.040Z,67.77
2022-11-29T17:28:11.253Z,68.90
2022-11-29T17:30:44.998Z,68.04
2022-11-29T17:33:15.751Z,68.20
2022-11-29T17:35:46.376Z,68.30
2022-11-29T17:38:16.944Z,68.59
2022-11-29T17:40:47.583Z,69.64
2022-11-29T17:43:18.115Z,70.02
2022-11-29T17:45:50.383Z,70.25
2022-11-29T17:48:21.152Z,71.34
2022-11-29T17:50:52.033Z,71.41
2022-11-29T17:53:24.834Z,71.45
2022-11-29T17:55:57.576Z,71.57
2022-11-29T17:58:28.223Z,71.83
2022-11-29T18:01:06.585Z,71.51
2022-11-29T18:03:41.547Z,71.83
2022-11-29T18:06:14.759Z,71.73
2022-11-29T18:08:49.275Z,71.52
2022-11-29T18:11:21.655Z,71.33
2022-11-29T18:13:53.635Z,71.19
2022-11-29T18:16:27.919Z,68.99
2022-11-29T18:19:04.110Z,66.12
2022-11-29T18:21:35.870Z,66.04
2022-11-29T18:24:11.668Z,63.78
2022-11-29T18:26:42.985Z,63.15
2022-11-29T18:29:14.998Z,62.91
2022-11-29T18:31:51.389Z,63.00
2022-11-29T18:34:24.433Z,61.79
2022-11-29T18:36:54.941Z,62.85
2022-11-29T18:39:25.894Z,62.70
2022-11-29T18:41:56.608Z,61.33
2022-11-29T18:44:31.768Z,61.00
2022-11-29T18:47:07.291Z,61.50
2022-11-29T18:49:37.998Z,61.33
2022-11-29T18:52:08.747Z,61.87
2022-11-29T18:54:42.635Z,62.00
2022-11-29T18:57:15.539Z,61.94
2022-11-29T18:59:46.183Z,62.61
2022-11-29T19:02:21.225Z,63.54
2022-11-29T19:04:54.478Z,63.86
2022-11-29T19:07:25.244Z,63.77
2022-11-29T19:10:01.173Z,64.28
2022-11-29T19:12:38.744Z,64.13
2022-11-29T19:15:10.503Z,64.92
2022-11-29T19:17:45.747Z,64.22
2022-11-29T19:20:17.081Z,65.25
2022-11-29T19:22:48.749Z,65.52
2022-11-29T19:25:19.572Z,65.52
2022-11-29T19:27:51.029Z,65.23
2022-11-29T19:30:24.587Z,62.71
2022-11-29T19:32:57.097Z,62.78
2022-11-29T19:35:27.871Z,63.09
2022-11-29T19:37:58.618Z,62.28
2022-11-29T19:40:29.766Z,61.64
2022-11-29T19:43:00.508Z,61.65
2022-11-29T19:45:31.335Z,62.14
2022-11-29T19:48:03.751Z,61.41
2022-11-29T19:50:39.215Z,61.12
2022-11-29T19:53:11.235Z,60.90
2022-11-29T19:55:44.000Z,60.12
2022-11-29T19:58:14.974Z,60.36
2022-11-29T20:00:45.575Z,60.28
2022-11-29T20:03:18.171Z,60.09
2022-11-29T20:06:00.030Z,58.72
2022-11-29T20:08:30.975Z,59.83
2022-11-29T20:11:09.122Z,59.81
2022-11-29T20:13:40.305Z,60.06
2022-11-29T20:16:13.433Z,60.18
2022-11-29T20:18:50.943Z,59.81
2022-11-29T20:21:24.235Z,60.01
2022-11-29T20:23:59.022Z,59.24
2022-11-29T20:26:33.813Z,59.77
2022-11-29T20:29:07.049Z,60.21
2022-11-29T20:31:40.320Z,60.92
2022-11-29T20:34:17.070Z,60.07
2022-11-29T20:37:08.263Z,59.49
2022-11-29T20:39:46.456Z,59.98
2022-11-29T20:42:39.470Z,61.13
2022-11-29T20:45:12.066Z,61.72
2022-11-29T20:47:51.786Z,61.26
2022-11-29T20:50:26.060Z,62.02
2022-11-29T20:53:07.976Z,62.16
2022-11-29T20:55:45.008Z,62.51
2022-11-29T20:58:19.159Z,62.64
2022-11-29T21:00:50.357Z,62.94
2022-11-29T21:03:21.888Z,63.62
2022-11-29T21:05:55.280Z,64.07
2022-11-29T21:08:28.568Z,64.35
2022-11-29T21:11:05.503Z,63.96
2022-11-29T21:13:37.207Z,64.39
2022-11-29T21:16:08.684Z,64.45
2022-11-29T21:18:39.967Z,64.78
2022-11-29T21:21:25.492Z,64.48
2022-11-29T21:24:03.749Z,63.21
2022-11-29T21:26:41.726Z,63.25
2022-11-29T21:29:19.260Z,63.38
2022-11-29T21:31:52.293Z,63.90
2022-11-29T21:34:23.206Z,63.33
2022-11-29T21:36:59.695Z,62.41
2022-11-29T21:39:34.893Z,62.87
2022-11-29T21:42:05.753Z,63.77
2022-11-29T21:44:36.489Z,63.14
2022-11-29T21:47:07.350Z,62.73
2022-11-29T21:49:38.307Z,63.35
2022-11-29T21:52:11.586Z,63.35
2022-11-29T21:54:42.499Z,63.57
2022-11-29T21:57:13.187Z,63.80
2022-11-29T21:59:43.818Z,64.87
2022-11-29T22:02:14.955Z,65.45
2022-11-29T22:04:45.842Z,67.19
2022-11-29T22:07:27.440Z,68.74
2022-11-29T22:09:58.120Z,70.82
2022-11-29T22:12:34.181Z,71.56
2022-11-29T22:15:05.582Z,72.28
2022-11-29T22:17:36.171Z,72.57
2022-11-29T22:20:07.043Z,73.05
2022-11-29T22:22:39.284Z,73.15
2022-11-29T22:25:10.523Z,73.65
2022-11-29T22:27:41.152Z,73.68
2022-11-29T22:30:12.497Z,73.95
2022-11-29T22:32:43.073Z,74.04
2022-11-29T22:35:13.713Z,74.42
2022-11-29T22:37:46.079Z,74.81
2022-11-29T22:40:17.812Z,75.11
2022-11-29T22:42:48.513Z,74.78
2022-11-29T22:45:19.350Z,75.59
2022-11-29T22:47:49.952Z,75.71
2022-11-29T22:50:20.624Z,76.28
2022-11-29T22:52:56.473Z,76.75
2022-11-29T22:55:27.058Z,76.86
2022-11-29T22:57:57.752Z,76.91
2022-11-29T23:00:28.465Z,77.32
2022-11-29T23:03:00.224Z,77.80
2022-11-29T23:05:32.522Z,77.68
2022-11-29T23:08:04.836Z,78.20
2022-11-29T23:10:35.118Z,78.41
2022-11-29T23:13:05.896Z,78.86
2022-11-29T23:15:36.568Z,78.77
2022-11-29T23:18:07.512Z,77.85
2022-11-29T23:20:38.293Z,77.22
2022-11-29T23:23:10.593Z,77.13
2022-11-29T23:25:48.267Z,75.95
2022-11-29T23:28:19.232Z,74.79
2022-11-29T23:30:49.858Z,74.71
2022-11-29T23:33:20.607Z,74.51
2022-11-29T23:35:51.445Z,74.18
2022-11-29T23:38:23.743Z,74.44
2022-11-29T23:40:54.421Z,73.94
2022-11-29T23:43:25.456Z,73.67
2022-11-29T23:45:56.136Z,73.80
2022-11-29T23:48:27.175Z,73.73
2022-11-29T23:50:57.816Z,72.92
2022-11-29T23:53:30.465Z,73.59
2022-11-29T23:56:02.572Z,74.27
2022-11-29T23:58:34.669Z,74.63
